Time;durP1;ratioP1;P1;durP2;ratioP2;P2;SDS_P1;SDS_P2;PMS_P1;PMS_P2;Temp;Humidity;BMP_temperature;BMP_pressure;BME280_temperature;BME280_humidity;BME280_pressure;Samples;Min_cycle;Max_cycle;Signal;HPM_P1;HPM_P2
2021/03/15 00:00:59;;;;;;;20.23;11.40;;;4.20;99.90;;;;;;5129388;28;20035;-52
2021/03/15 00:03:26;;;;;;;26.27;11.50;;;4.20;99.90;;;;;;5130388;28;20020;-52
2021/03/15 00:05:51;;;;;;;23.98;11.27;;;4.30;99.90;;;;;;5124222;28;20023;-53
2021/03/15 00:08:17;;;;;;;26.50;12.43;;;4.30;99.90;;;;;;5130621;28;20527;-56
2021/03/15 00:10:43;;;;;;;29.50;12.90;;;4.30;99.90;;;;;;5128451;28;20076;-52
2021/03/15 00:13:09;;;;;;;35.50;13.27;;;4.30;99.90;;;;;;5130540;28;20028;-55
2021/03/15 00:15:35;;;;;;;32.70;15.10;;;4.30;99.90;;;;;;5130600;28;20508;-57
2021/03/15 00:18:02;;;;;;;33.65;14.13;;;4.30;99.90;;;;;;5130516;28;20027;-58
2021/03/15 00:20:27;;;;;;;30.17;13.73;;;4.40;99.90;;;;;;5117950;28;20027;-55
2021/03/15 00:22:53;;;;;;;32.55;15.02;;;4.40;99.90;;;;;;5129307;27;20106;-57
2021/03/15 00:25:19;;;;;;;31.35;15.60;;;4.50;99.90;;;;;;5134506;27;20114;-55
2021/03/15 00:27:46;;;;;;;42.28;17.55;;;4.50;99.90;;;;;;5107055;28;20035;-53
2021/03/15 00:30:14;;;;;;;38.72;17.27;;;4.50;99.90;;;;;;5132031;27;20042;-55
2021/03/15 00:32:41;;;;;;;40.95;17.83;;;4.60;99.90;;;;;;5134806;27;20019;-54
2021/03/15 00:35:09;;;;;;;39.03;17.70;;;4.70;99.90;;;;;;5129799;27;20027;-55
2021/03/15 00:37:35;;;;;;;41.35;18.13;;;4.70;99.90;;;;;;5133128;27;20027;-55
2021/03/15 00:40:00;;;;;;;46.60;15.65;;;4.80;99.90;;;;;;5134277;27;20111;-52
2021/03/15 00:42:26;;;;;;;43.22;16.90;;;5.00;99.90;;;;;;5134105;27;20094;-56
2021/03/15 00:44:52;;;;;;;36.35;15.57;;;5.00;99.90;;;;;;5129706;27;20052;-55
2021/03/15 00:47:18;;;;;;;32.40;15.23;;;5.00;99.90;;;;;;5126623;27;20035;-55
2021/03/15 00:49:43;;;;;;;36.13;15.25;;;5.10;99.90;;;;;;5127403;27;20047;-55
2021/03/15 00:52:09;;;;;;;34.20;12.35;;;5.10;99.90;;;;;;5134098;27;20056;-56
2021/03/15 00:54:34;;;;;;;37.22;12.02;;;5.30;99.90;;;;;;5127998;22;20052;-58
2021/03/15 00:57:00;;;;;;;34.40;13.05;;;5.40;99.90;;;;;;5101283;28;20481;-57
2021/03/15 00:59:25;;;;;;;30.63;11.48;;;5.40;99.90;;;;;;5097231;28;20032;-57
2021/03/15 01:01:51;;;;;;;43.33;13.18;;;5.50;99.90;;;;;;5091510;28;20051;-58
2021/03/15 01:04:17;;;;;;;29.95;11.32;;;5.60;99.90;;;;;;5093031;28;20032;-56
2021/03/15 01:06:43;;;;;;;27.83;10.48;;;5.70;99.90;;;;;;5087539;28;20131;-58
2021/03/15 01:09:09;;;;;;;21.00;10.40;;;5.70;99.90;;;;;;5087973;28;20043;-56
2021/03/15 01:11:36;;;;;;;27.33;10.98;;;5.70;99.90;;;;;;5092480;28;20174;-58
2021/03/15 01:14:03;;;;;;;34.17;12.05;;;5.70;99.90;;;;;;5093270;28;20440;-55
2021/03/15 01:16:28;;;;;;;28.67;11.10;;;5.70;99.90;;;;;;5093954;28;20020;-54
2021/03/15 01:18:54;;;;;;;40.30;11.52;;;5.70;99.90;;;;;;5095200;28;20496;-57
2021/03/15 01:21:19;;;;;;;28.50;10.63;;;5.70;99.90;;;;;;5093553;28;20028;-54
2021/03/15 01:23:45;;;;;;;33.00;11.35;;;5.70;99.90;;;;;;5094041;28;20028;-57
2021/03/15 01:26:10;;;;;;;26.67;10.35;;;5.70;99.90;;;;;;5092719;28;20108;-57
2021/03/15 01:28:36;;;;;;;36.80;10.52;;;5.70;99.90;;;;;;5092844;28;20486;-56
2021/03/15 01:31:02;;;;;;;29.52;13.98;;;5.80;99.90;;;;;;5090743;28;20070;-57
2021/03/15 01:33:27;;;;;;;31.88;12.70;;;5.80;99.90;;;;;;5092355;28;20417;-57
2021/03/15 01:35:53;;;;;;;44.45;17.10;;;5.80;99.90;;;;;;5093106;28;20030;-56
2021/03/15 01:38:19;;;;;;;38.80;16.38;;;5.80;99.90;;;;;;5064456;28;20023;-56
2021/03/15 01:40:45;;;;;;;32.20;14.32;;;5.80;99.90;;;;;;5099982;28;20081;-57
2021/03/15 01:43:11;;;;;;;35.05;14.63;;;5.80;99.90;;;;;;5112378;28;20516;-57
2021/03/15 01:45:37;;;;;;;33.42;12.73;;;5.80;99.90;;;;;;5105693;28;20133;-57
2021/03/15 01:48:06;;;;;;;44.13;15.50;;;5.80;99.90;;;;;;5102403;28;20028;-56
2021/03/15 01:50:32;;;;;;;25.63;12.52;;;5.80;99.90;;;;;;5101576;28;20542;-57
2021/03/15 01:52:58;;;;;;;34.88;13.13;;;5.80;99.90;;;;;;5107116;28;20031;-54
2021/03/15 01:55:25;;;;;;;37.33;13.00;;;5.80;99.90;;;;;;5094726;28;20089;-55
2021/03/15 01:57:51;;;;;;;33.05;11.43;;;5.80;99.90;;;;;;5092551;28;20028;-53
2021/03/15 02:00:19;;;;;;;38.42;13.50;;;5.80;99.90;;;;;;5092038;28;20028;-55
2021/03/15 02:02:52;;;;;;;31.27;13.07;;;5.80;99.90;;;;;;5092164;28;20107;-56
2021/03/15 02:05:18;;;;;;;27.90;10.90;;;5.90;99.90;;;;;;5094062;28;20046;-54
2021/03/15 02:07:44;;;;;;;24.42;11.38;;;5.90;99.90;;;;;;5092156;28;20036;-55
2021/03/15 02:10:10;;;;;;;28.60;10.77;;;5.90;99.90;;;;;;5091741;28;20450;-58
2021/03/15 02:12:54;;;;;;;17.25;9.50;;;5.90;99.90;;;;;;5092405;28;20052;-56
2021/03/15 02:15:37;;;;;;;15.13;7.07;;;5.90;99.90;;;;;;5088225;28;20081;-54
2021/03/15 02:18:11;;;;;;;17.63;6.60;;;5.90;99.90;;;;;;5087510;28;20023;-54
2021/03/15 02:20:58;;;;;;;20.42;6.50;;;5.90;99.90;;;;;;5091394;28;20925;-56
2021/03/15 02:23:29;;;;;;;12.55;5.65;;;5.80;99.90;;;;;;5091555;28;20127;-55
2021/03/15 02:26:16;;;;;;;11.52;5.32;;;5.80;99.90;;;;;;5096103;28;20095;-58
2021/03/15 02:29:06;;;;;;;14.88;5.78;;;5.80;99.90;;;;;;5086946;28;20047;-57
2021/03/15 02:32:09;;;;;;;16.38;6.25;;;5.80;99.90;;;;;;5095218;28;20036;-56
2021/03/15 02:35:07;;;;;;;12.23;4.57;;;5.80;99.90;;;;;;5061023;28;20043;-57
2021/03/15 02:37:44;;;;;;;10.45;4.90;;;5.70;99.90;;;;;;5096871;28;20073;-55
2021/03/15 02:40:16;;;;;;;12.30;4.75;;;5.70;99.90;;;;;;5085855;28;20027;-57
2021/03/15 02:42:47;;;;;;;12.43;4.55;;;5.70;99.90;;;;;;5091474;28;20543;-58
2021/03/15 02:45:14;;;;;;;11.38;4.78;;;5.70;99.90;;;;;;5097619;28;20040;-59
2021/03/15 02:47:42;;;;;;;13.85;4.55;;;5.70;99.90;;;;;;5100728;28;20032;-58
2021/03/15 02:50:10;;;;;;;11.43;3.70;;;5.70;99.90;;;;;;5096042;28;20039;-58
2021/03/15 02:52:43;;;;;;;8.38;3.67;;;5.70;99.90;;;;;;5106578;28;20023;-58
2021/03/15 02:55:10;;;;;;;9.93;3.47;;;5.70;99.90;;;;;;5103758;28;20073;-57
2021/03/15 02:57:36;;;;;;;8.82;3.95;;;5.70;99.90;;;;;;5106582;28;20020;-57
2021/03/15 03:00:06;;;;;;;14.52;4.90;;;5.70;99.90;;;;;;5105792;28;20419;-58
2021/03/15 03:02:35;;;;;;;19.15;9.40;;;5.70;99.90;;;;;;5097368;28;20024;-58
2021/03/15 03:05:06;;;;;;;25.55;12.43;;;5.70;99.90;;;;;;5090651;28;20053;-58
2021/03/15 03:07:32;;;;;;;16.08;8.10;;;5.60;99.90;;;;;;5106058;28;20027;-58
2021/03/15 03:09:59;;;;;;;24.08;9.75;;;5.60;99.90;;;;;;5101715;28;20076;-59
2021/03/15 03:12:25;;;;;;;13.38;6.25;;;5.60;99.90;;;;;;5100100;28;20035;-57
2021/03/15 03:14:51;;;;;;;17.90;6.82;;;5.60;99.90;;;;;;5094336;28;20568;-56
2021/03/15 03:17:19;;;;;;;11.65;5.00;;;5.60;99.90;;;;;;5090892;28;20415;-55
2021/03/15 03:19:47;;;;;;;15.50;6.45;;;5.60;99.90;;;;;;5087670;28;20069;-58
2021/03/15 03:22:15;;;;;;;11.80;5.25;;;5.60;99.90;;;;;;5089986;28;20024;-54
2021/03/15 03:24:43;;;;;;;13.48;5.95;;;5.60;99.90;;;;;;5083902;28;20032;-55
2021/03/15 03:27:11;;;;;;;9.27;4.35;;;5.60;99.90;;;;;;5097085;28;20039;-56
2021/03/15 03:29:38;;;;;;;10.27;4.57;;;5.60;99.90;;;;;;5088673;28;20496;-55
2021/03/15 03:32:04;;;;;;;10.10;3.90;;;5.60;99.90;;;;;;5071791;28;20028;-57
2021/03/15 03:34:29;;;;;;;14.00;4.80;;;5.60;99.90;;;;;;5105779;28;20131;-56
2021/03/15 03:36:55;;;;;;;13.05;6.05;;;5.60;99.90;;;;;;5098340;28;20138;-57
2021/03/15 03:39:21;;;;;;;15.88;7.32;;;5.60;99.90;;;;;;5110665;28;20039;-57
2021/03/15 03:41:47;;;;;;;15.07;6.38;;;5.60;99.90;;;;;;5090394;28;20511;-58
2021/03/15 03:44:13;;;;;;;16.33;7.93;;;5.60;99.90;;;;;;5100400;28;20377;-59
2021/03/15 03:46:40;;;;;;;12.75;7.18;;;5.60;99.90;;;;;;5091731;28;20051;-57
2021/03/15 03:49:07;;;;;;;17.83;7.88;;;5.60;99.90;;;;;;5090247;28;20036;-55
2021/03/15 03:51:44;;;;;;;17.15;7.63;;;5.60;99.90;;;;;;5090518;28;20035;-55
2021/03/15 03:54:24;;;;;;;15.60;9.48;;;5.60;99.90;;;;;;5096309;28;20032;-56
2021/03/15 03:56:52;;;;;;;13.40;8.70;;;5.60;99.90;;;;;;5102164;28;20362;-58
2021/03/15 03:59:21;;;;;;;17.35;9.25;;;5.60;99.90;;;;;;5107632;28;20099;-57
2021/03/15 04:01:50;;;;;;;14.18;8.13;;;5.60;99.90;;;;;;5089224;28;20398;-56
2021/03/15 04:04:19;;;;;;;4.82;2.40;;;5.60;99.90;;;;;;5095674;28;20055;-59
2021/03/15 04:06:47;;;;;;;5.50;2.70;;;5.60;99.90;;;;;;5100463;28;20028;-55
2021/03/15 04:09:15;;;;;;;3.03;1.35;;;5.60;99.90;;;;;;5104653;28;20024;-55
2021/03/15 04:11:49;;;;;;;3.38;1.45;;;5.60;99.90;;;;;;5101890;28;20039;-57
2021/03/15 04:14:19;;;;;;;4.00;1.35;;;5.60;99.90;;;;;;5089347;28;20074;-57
2021/03/15 04:16:46;;;;;;;4.43;1.77;;;5.60;99.90;;;;;;5082985;28;20036;-56
2021/03/15 04:19:12;;;;;;;2.08;1.52;;;5.60;99.90;;;;;;5089655;28;20023;-60
2021/03/15 04:21:42;;;;;;;2.30;1.55;;;5.60;99.90;;;;;;5094469;28;20051;-54
2021/03/15 04:24:10;;;;;;;5.65;1.83;;;5.50;99.90;;;;;;5093898;28;20465;-56
2021/03/15 04:26:38;;;;;;;4.80;2.40;;;5.60;99.90;;;;;;5102596;28;20085;-55
2021/03/15 04:29:05;;;;;;;5.57;2.22;;;5.60;99.90;;;;;;5089462;28;20063;-56
2021/03/15 04:31:31;;;;;;;7.07;3.00;;;5.60;99.90;;;;;;5090046;28;20020;-57
2021/03/15 04:33:58;;;;;;;9.75;3.22;;;5.70;99.90;;;;;;5089942;28;20078;-55
2021/03/15 04:36:24;;;;;;;7.50;4.50;;;5.70;99.90;;;;;;5093924;28;20054;-58
2021/03/15 04:38:51;;;;;;;9.18;4.88;;;5.70;99.90;;;;;;5102617;28;20046;-57
2021/03/15 04:41:17;;;;;;;10.07;4.93;;;5.70;99.90;;;;;;5096207;28;20108;-58
2021/03/15 04:43:47;;;;;;;11.48;5.40;;;5.70;99.90;;;;;;5090663;28;20024;-58
2021/03/15 04:46:16;;;;;;;12.60;6.45;;;5.70;99.90;;;;;;5104167;28;20035;-58
2021/03/15 04:48:42;;;;;;;14.15;6.95;;;5.70;99.90;;;;;;5085552;28;20055;-60
2021/03/15 04:51:09;;;;;;;17.08;7.28;;;5.70;99.90;;;;;;5097556;28;20036;-55
2021/03/15 04:53:38;;;;;;;15.98;8.40;;;5.80;99.90;;;;;;5100473;28;20084;-55
2021/03/15 04:56:08;;;;;;;15.68;9.13;;;5.80;99.90;;;;;;5089764;28;20016;-55
2021/03/15 04:58:35;;;;;;;29.23;10.98;;;5.90;99.90;;;;;;5105277;28;20473;-58
2021/03/15 05:01:03;;;;;;;19.00;10.70;;;5.90;99.90;;;;;;5089890;28;20025;-58
2021/03/15 05:03:30;;;;;;;21.58;12.55;;;5.90;99.90;;;;;;5089038;28;20024;-58
2021/03/15 05:05:56;;;;;;;27.38;13.40;;;6.00;99.90;;;;;;5089623;28;20028;-58
2021/03/15 05:08:33;;;;;;;23.88;13.32;;;6.00;99.90;;;;;;5090826;28;20362;-58
2021/03/15 05:11:02;;;;;;;24.45;13.57;;;6.00;99.90;;;;;;5093411;28;20036;-59
2021/03/15 05:13:29;;;;;;;30.58;14.85;;;6.00;99.90;;;;;;5092931;28;20114;-57
2021/03/15 05:15:57;;;;;;;29.45;16.55;;;6.10;99.90;;;;;;5092393;28;20435;-57
2021/03/15 05:18:23;;;;;;;34.92;16.98;;;6.10;99.90;;;;;;5094198;28;20021;-57
2021/03/15 05:20:50;;;;;;;27.65;14.82;;;6.10;99.90;;;;;;5096246;28;20051;-57
2021/03/15 05:23:15;;;;;;;34.60;14.90;;;6.10;99.90;;;;;;5113156;28;20496;-57
2021/03/15 05:25:48;;;;;;;31.17;15.38;;;6.10;99.90;;;;;;5108604;28;20083;-58
2021/03/15 05:28:15;;;;;;;26.90;15.55;;;6.10;99.90;;;;;;5102595;28;20036;-57
2021/03/15 05:30:42;;;;;;;23.63;13.93;;;6.20;99.90;;;;;;5109243;28;20370;-57
2021/03/15 05:33:12;;;;;;;23.02;13.88;;;6.10;99.90;;;;;;5094012;28;20020;-56
2021/03/15 05:35:43;;;;;;;25.08;14.75;;;6.10;99.90;;;;;;5091314;28;20394;-57
2021/03/15 05:38:10;;;;;;;27.30;14.07;;;6.20;99.90;;;;;;5092620;28;20104;-56
2021/03/15 05:40:38;;;;;;;23.85;13.48;;;6.20;99.90;;;;;;5093639;28;20016;-59
2021/03/15 05:43:22;;;;;;;25.83;14.23;;;6.10;99.90;;;;;;5095491;28;20019;-57
2021/03/15 05:46:06;;;;;;;24.27;12.95;;;6.10;99.90;;;;;;5096561;28;20032;-58
2021/03/15 05:49:00;;;;;;;21.25;12.13;;;6.10;99.90;;;;;;5097675;28;20032;-59
2021/03/15 05:51:41;;;;;;;18.45;10.52;;;6.10;99.90;;;;;;5096229;28;20031;-60
2021/03/15 05:54:16;;;;;;;16.77;9.07;;;6.00;99.90;;;;;;5096401;28;20508;-58
2021/03/15 05:57:19;;;;;;;11.82;8.07;;;5.90;99.90;;;;;;5098286;28;20032;-60
2021/03/15 06:00:23;;;;;;;13.68;7.13;;;5.80;99.90;;;;;;5106818;28;20099;-56
2021/03/15 06:03:27;;;;;;;12.35;6.13;;;5.70;99.90;;;;;;5096069;28;20374;-58
2021/03/15 06:05:55;;;;;;;11.27;5.93;;;5.70;99.90;;;;;;5096275;28;20485;-56
2021/03/15 06:08:22;;;;;;;7.75;4.90;;;5.60;99.90;;;;;;5089089;28;20046;-58
2021/03/15 06:11:09;;;;;;;8.18;4.70;;;5.50;99.90;;;;;;5074026;28;20481;-58
2021/03/15 06:13:36;;;;;;;9.82;5.28;;;5.50;99.90;;;;;;5077914;28;20119;-61
2021/03/15 06:16:04;;;;;;;13.23;6.05;;;5.50;99.90;;;;;;5100205;28;20035;-61
2021/03/15 06:18:30;;;;;;;10.85;6.03;;;5.50;99.90;;;;;;5104304;28;20020;-64
2021/03/15 06:20:57;;;;;;;8.75;5.20;;;5.50;99.90;;;;;;5092344;28;20702;-63
2021/03/15 06:23:24;;;;;;;9.15;5.75;;;5.50;99.90;;;;;;5102399;28;20020;-61
2021/03/15 06:25:50;;;;;;;10.98;6.35;;;5.50;99.90;;;;;;5091912;28;20413;-63
2021/03/15 06:28:17;;;;;;;13.43;6.45;;;5.50;99.90;;;;;;5085745;28;20032;-64
2021/03/15 06:30:44;;;;;;;10.95;7.13;;;5.50;99.90;;;;;;5085011;28;20034;-64
2021/03/15 06:33:11;;;;;;;16.00;8.52;;;5.60;99.90;;;;;;5085304;28;20028;-64
2021/03/15 06:35:38;;;;;;;14.32;7.85;;;5.60;99.90;;;;;;5096922;28;20111;-64
2021/03/15 06:38:05;;;;;;;16.95;9.95;;;5.60;99.90;;;;;;5091849;28;20050;-62
2021/03/15 06:40:37;;;;;;;18.05;10.93;;;5.60;99.90;;;;;;5111156;28;20038;-64
2021/03/15 06:43:04;;;;;;;16.42;10.70;;;5.60;99.90;;;;;;5101973;28;20012;-64
2021/03/15 06:45:30;;;;;;;18.20;10.40;;;5.60;99.90;;;;;;5100466;28;20473;-63
2021/03/15 06:47:57;;;;;;;18.42;11.05;;;5.60;99.90;;;;;;5091171;28;20099;-63
2021/03/15 06:50:23;;;;;;;20.38;12.18;;;5.60;99.90;;;;;;5090061;28;20020;-64
2021/03/15 06:52:52;;;;;;;18.85;11.88;;;5.60;99.90;;;;;;5100269;28;20024;-64
2021/03/15 06:55:19;;;;;;;25.52;13.27;;;5.60;99.90;;;;;;5114998;22;20528;-48
2021/03/15 06:57:45;;;;;;;24.73;12.52;;;5.60;99.90;;;;;;5087929;28;20016;-52
2021/03/15 07:00:11;;;;;;;17.73;11.40;;;5.60;99.90;;;;;;5090201;28;20379;-50
2021/03/15 07:02:37;;;;;;;18.95;11.48;;;5.60;99.90;;;;;;5093561;28;20016;-51
2021/03/15 07:05:11;;;;;;;20.67;10.95;;;5.60;99.90;;;;;;5092172;28;20536;-49
2021/03/15 07:07:39;;;;;;;17.60;10.98;;;5.60;99.90;;;;;;5091996;28;20020;-51
2021/03/15 07:10:16;;;;;;;19.02;11.77;;;5.70;99.90;;;;;;5089239;28;20020;-50
2021/03/15 07:12:41;;;;;;;17.80;11.38;;;5.70;99.90;;;;;;5087492;28;20019;-53
2021/03/15 07:15:07;;;;;;;18.35;11.02;;;5.70;99.90;;;;;;5083422;28;20429;-48
2021/03/15 07:17:34;;;;;;;23.65;12.15;;;5.70;99.90;;;;;;5078816;28;20082;-48
2021/03/15 07:19:59;;;;;;;18.92;11.52;;;5.80;99.90;;;;;;5088389;28;20024;-54
2021/03/15 07:22:27;;;;;;;21.92;12.20;;;5.80;99.90;;;;;;5091194;28;20028;-52
2021/03/15 07:25:06;;;;;;;22.15;11.93;;;5.90;99.90;;;;;;5091536;28;20028;-50
2021/03/15 07:27:34;;;;;;;24.35;13.40;;;5.90;99.90;;;;;;5084281;28;20032;-50
2021/03/15 07:30:27;;;;;;;21.83;11.50;;;6.00;99.90;;;;;;5087042;28;20486;-49
2021/03/15 07:33:20;;;;;;;21.77;11.77;;;6.00;99.90;;;;;;5087506;28;20031;-50
2021/03/15 07:35:46;;;;;;;22.85;11.82;;;6.10;99.90;;;;;;5091742;28;20036;-52
2021/03/15 07:38:13;;;;;;;22.25;12.43;;;6.10;99.90;;;;;;5073127;28;20020;-49
2021/03/15 07:40:43;;;;;;;18.65;11.63;;;6.20;99.90;;;;;;5073211;28;20024;-48
2021/03/15 07:43:23;;;;;;;22.98;12.07;;;6.20;99.90;;;;;;5090910;28;20027;-49
2021/03/15 07:45:49;;;;;;;20.75;11.45;;;6.20;99.90;;;;;;5052736;28;20507;-52
2021/03/15 07:48:24;;;;;;;22.48;12.27;;;6.20;99.90;;;;;;5091089;28;20040;-48
2021/03/15 07:51:04;;;;;;;20.50;11.77;;;6.30;99.90;;;;;;5071572;28;20381;-48
2021/03/15 07:53:49;;;;;;;23.52;11.15;;;6.20;99.90;;;;;;5090196;28;20030;-49
2021/03/15 07:56:19;;;;;;;21.88;11.90;;;6.30;99.90;;;;;;5089720;28;20558;-49
2021/03/15 07:58:46;;;;;;;20.27;11.32;;;6.30;99.90;;;;;;5089991;28;20024;-48
2021/03/15 08:01:14;;;;;;;20.30;11.05;;;6.40;99.90;;;;;;5070351;28;20082;-52
2021/03/15 08:03:41;;;;;;;17.42;9.75;;;6.40;99.90;;;;;;5086091;28;20028;-50
2021/03/15 08:06:11;;;;;;;24.65;10.95;;;6.40;99.90;;;;;;5084864;28;20056;-50
2021/03/15 08:08:39;;;;;;;18.33;10.27;;;6.50;99.90;;;;;;5090392;28;20032;-49
2021/03/15 08:11:06;;;;;;;16.80;9.23;;;6.50;99.90;;;;;;5082447;28;20028;-49
2021/03/15 08:13:38;;;;;;;24.90;9.52;;;6.60;99.90;;;;;;5087987;28;20497;-49
2021/03/15 08:16:05;;;;;;;18.70;9.48;;;6.60;99.90;;;;;;5086635;28;20060;-48
2021/03/15 08:18:33;;;;;;;17.05;8.48;;;6.60;99.90;;;;;;5087629;28;20071;-49
2021/03/15 08:21:02;;;;;;;18.60;9.15;;;6.60;99.90;;;;;;5087446;28;20054;-53
2021/03/15 08:23:30;;;;;;;21.80;9.20;;;6.70;99.90;;;;;;5088091;28;20032;-48
2021/03/15 08:26:03;;;;;;;16.38;8.23;;;6.60;99.90;;;;;;5088502;28;20028;-48
2021/03/15 08:28:31;;;;;;;14.30;7.70;;;6.70;99.90;;;;;;5088445;28;20082;-52
2021/03/15 08:31:00;;;;;;;16.13;7.47;;;6.80;99.90;;;;;;5087884;28;20032;-52
2021/03/15 08:33:27;;;;;;;17.50;7.47;;;6.80;99.90;;;;;;5087015;28;20421;-49
2021/03/15 08:35:54;;;;;;;10.50;5.18;;;6.90;99.90;;;;;;5088834;28;20024;-49
2021/03/15 08:38:31;;;;;;;10.55;5.03;;;7.10;99.90;;;;;;5085241;28;20055;-52
2021/03/15 08:41:02;;;;;;;13.75;6.25;;;7.20;99.90;;;;;;5068501;28;20024;-50
2021/03/15 08:43:31;;;;;;;16.13;6.15;;;7.40;99.90;;;;;;5089283;28;20096;-52
2021/03/15 08:46:02;;;;;;;10.35;5.70;;;7.40;99.90;;;;;;5094788;28;20021;-49
2021/03/15 08:48:37;;;;;;;9.38;4.80;;;7.40;99.90;;;;;;5072106;28;20032;-50
2021/03/15 08:51:13;;;;;;;12.65;5.57;;;7.40;99.90;;;;;;5089012;28;20035;-50
2021/03/15 08:53:39;;;;;;;20.15;6.25;;;7.40;99.90;;;;;;5094357;28;20428;-48
2021/03/15 08:56:10;;;;;;;14.35;5.85;;;7.40;99.90;;;;;;5093885;28;20027;-49
2021/03/15 08:58:46;;;;;;;15.90;6.07;;;7.50;99.90;;;;;;5094767;28;20444;-49
2021/03/15 09:01:13;;;;;;;20.05;6.53;;;7.50;99.90;;;;;;5093494;28;20053;-49
2021/03/15 09:03:58;;;;;;;13.27;6.03;;;7.50;99.90;;;;;;5093430;28;20024;-49
2021/03/15 09:06:33;;;;;;;20.15;6.97;;;7.50;99.90;;;;;;5089600;28;20119;-50
2021/03/15 09:09:12;;;;;;;12.05;6.57;;;7.50;99.90;;;;;;5092246;28;20035;-49
2021/03/15 09:11:38;;;;;;;13.80;6.80;;;7.50;99.90;;;;;;5091896;28;20021;-50
2021/03/15 09:14:16;;;;;;;16.05;6.88;;;7.50;99.90;;;;;;5093296;28;20024;-51
2021/03/15 09:17:13;;;;;;;16.48;6.43;;;7.50;99.90;;;;;;5087653;28;20024;-49
2021/03/15 09:19:38;;;;;;;16.55;7.38;;;7.40;99.90;;;;;;5065831;28;20032;-52
2021/03/15 09:22:26;;;;;;;16.33;6.07;;;7.40;99.90;;;;;;5093290;28;20020;-53
2021/03/15 09:24:58;;;;;;;16.10;7.68;;;7.30;99.90;;;;;;5093841;28;20032;-52
2021/03/15 09:27:44;;;;;;;17.92;7.55;;;7.30;99.90;;;;;;5092637;28;20028;-50
2021/03/15 09:30:17;;;;;;;15.82;7.10;;;7.40;99.90;;;;;;5090096;28;20030;-53
2021/03/15 09:32:49;;;;;;;21.13;8.60;;;7.30;99.90;;;;;;5092361;28;20020;-49
2021/03/15 09:35:30;;;;;;;21.80;7.18;;;7.30;99.90;;;;;;5087884;28;20024;-52
2021/03/15 09:38:05;;;;;;;17.80;9.00;;;7.40;99.90;;;;;;5090350;28;20123;-53
2021/03/15 09:40:36;;;;;;;20.50;9.52;;;7.40;99.90;;;;;;5088693;28;20028;-52
2021/03/15 09:43:02;;;;;;;18.15;7.35;;;7.50;99.90;;;;;;5087230;28;20012;-51
2021/03/15 09:45:38;;;;;;;15.68;7.25;;;7.50;99.90;;;;;;5093997;28;20074;-50
2021/03/15 09:48:16;;;;;;;17.95;7.90;;;7.50;99.90;;;;;;5093928;28;20452;-50
2021/03/15 09:50:58;;;;;;;19.00;7.18;;;7.50;99.90;;;;;;5093701;28;20077;-52
2021/03/15 09:53:24;;;;;;;12.35;7.22;;;7.50;99.90;;;;;;5091900;28;20041;-52
2021/03/15 09:56:01;;;;;;;22.90;7.75;;;7.60;99.90;;;;;;5092966;28;20054;-50
2021/03/15 09:58:27;;;;;;;15.38;7.13;;;7.60;99.90;;;;;;5093591;28;20028;-52
2021/03/15 10:00:54;;;;;;;17.35;6.97;;;7.70;99.90;;;;;;5093601;28;20030;-49
2021/03/15 10:03:21;;;;;;;16.17;6.75;;;7.80;99.90;;;;;;5093929;28;20038;-50
2021/03/15 10:05:57;;;;;;;17.75;6.72;;;7.90;99.90;;;;;;5093517;28;20024;-52
2021/03/15 10:08:24;;;;;;;19.42;6.57;;;8.00;99.90;;;;;;5093515;28;20028;-52
2021/03/15 10:10:50;;;;;;;20.55;5.55;;;8.00;99.90;;;;;;5092372;28;20120;-54
2021/03/15 10:13:15;;;;;;;18.08;5.05;;;8.00;99.90;;;;;;5093269;28;20032;-54
2021/03/15 10:15:41;;;;;;;18.75;5.93;;;8.00;99.90;;;;;;5089350;28;20032;-53
2021/03/15 10:18:07;;;;;;;22.02;6.20;;;7.90;99.90;;;;;;5093393;28;20093;-50
2021/03/15 10:20:38;;;;;;;22.23;6.15;;;8.00;99.90;;;;;;5092125;28;20024;-49
2021/03/15 10:23:14;;;;;;;13.02;5.18;;;8.00;99.90;;;;;;5092575;28;20031;-49
2021/03/15 10:25:51;;;;;;;21.50;4.30;;;8.20;99.90;;;;;;5092924;28;20039;-51
2021/03/15 10:28:17;;;;;;;20.45;3.97;;;8.40;99.90;;;;;;5090171;28;20028;-50
2021/03/15 10:30:43;;;;;;;19.13;4.60;;;8.60;99.90;;;;;;5090827;28;20028;-53
2021/03/15 10:33:10;;;;;;;20.80;5.05;;;8.70;99.90;;;;;;5092552;28;20066;-54
2021/03/15 10:35:37;;;;;;;16.40;3.40;;;8.80;99.90;;;;;;5092521;28;20478;-52
2021/03/15 10:38:04;;;;;;;11.40;2.70;;;9.00;99.90;;;;;;5092599;28;20040;-51
2021/03/15 10:40:32;;;;;;;11.13;3.40;;;9.00;99.90;;;;;;5092673;28;20024;-54
2021/03/15 10:42:59;;;;;;;23.05;3.45;;;8.70;99.90;;;;;;5093146;28;20012;-51
2021/03/15 10:45:26;;;;;;;13.50;2.85;;;8.50;99.90;;;;;;5092273;28;20067;-52
2021/03/15 10:48:03;;;;;;;16.05;3.38;;;8.40;99.90;;;;;;5092971;28;20036;-50
2021/03/15 10:50:34;;;;;;;13.68;3.58;;;8.60;99.90;;;;;;5092585;28;20113;-49
2021/03/15 10:53:17;;;;;;;9.50;3.25;;;9.10;99.90;;;;;;5092493;28;20034;-54
2021/03/15 10:55:43;;;;;;;13.95;3.00;;;9.00;99.90;;;;;;5092169;28;20028;-54
2021/03/15 10:58:17;;;;;;;13.45;3.40;;;9.00;99.90;;;;;;5090832;28;20077;-50
2021/03/15 11:00:59;;;;;;;17.17;3.70;;;8.90;99.90;;;;;;5090573;28;20028;-50
2021/03/15 11:03:30;;;;;;;15.30;3.90;;;8.90;99.90;;;;;;5091104;28;20070;-53
2021/03/15 11:06:03;;;;;;;21.92;4.38;;;8.90;99.90;;;;;;5089884;28;20059;-53
2021/03/15 11:08:29;;;;;;;15.05;4.88;;;8.90;99.90;;;;;;5092349;28;20032;-52
2021/03/15 11:10:54;;;;;;;13.30;3.78;;;8.80;99.90;;;;;;5092100;28;20031;-53
2021/03/15 11:13:21;;;;;;;10.60;2.33;;;8.80;99.90;;;;;;5089693;28;20038;-50
2021/03/15 11:15:48;;;;;;;8.93;2.28;;;8.70;99.90;;;;;;5091180;28;20107;-54
2021/03/15 11:18:16;;;;;;;12.05;2.65;;;8.50;99.90;;;;;;5090707;28;20378;-51
2021/03/15 11:21:08;;;;;;;10.23;3.42;;;8.00;99.90;;;;;;5089254;28;20023;-49
2021/03/15 11:23:36;;;;;;;15.13;3.33;;;7.50;99.90;;;;;;5089926;28;20024;-49
2021/03/15 11:26:11;;;;;;;8.48;2.65;;;7.20;99.90;;;;;;5090649;28;20546;-49
2021/03/15 11:28:46;;;;;;;8.65;2.33;;;6.90;99.90;;;;;;5088171;28;20024;-48
2021/03/15 11:31:18;;;;;;;;;;;6.70;99.90;;;;;;5091221;28;20555;-52
2021/03/15 11:33:55;;;;;;;6.65;2.10;;;6.70;99.90;;;;;;5081220;28;20288;-48
2021/03/15 11:36:23;;;;;;;6.50;1.50;;;6.60;99.90;;;;;;5084517;28;20032;-50
2021/03/15 11:38:55;;;;;;;4.22;1.27;;;6.80;99.90;;;;;;5084212;28;20031;-49
2021/03/15 11:41:34;;;;;;;6.85;1.50;;;7.20;99.90;;;;;;5091673;28;20020;-49
2021/03/15 11:44:01;;;;;;;7.15;1.90;;;7.50;99.90;;;;;;5089561;28;20039;-49
2021/03/15 11:46:27;;;;;;;9.15;1.60;;;7.80;99.90;;;;;;5090140;28;20035;-49
2021/03/15 11:48:52;;;;;;;10.55;2.22;;;7.90;99.90;;;;;;5089373;28;20028;-50
2021/03/15 11:51:18;;;;;;;11.40;1.88;;;8.10;99.90;;;;;;5089534;28;20036;-50
2021/03/15 11:53:45;;;;;;;12.23;3.42;;;8.20;99.90;;;;;;5083052;28;20047;-53
2021/03/15 11:56:12;;;;;;;14.65;2.67;;;8.30;99.90;;;;;;5088777;28;20167;-54
2021/03/15 11:58:38;;;;;;;6.65;1.95;;;8.60;99.90;;;;;;5088219;28;20125;-49
2021/03/15 12:01:05;;;;;;;4.68;2.00;;;8.80;99.90;;;;;;5087914;28;20050;-50
2021/03/15 12:03:31;;;;;;;10.40;2.00;;;8.90;99.90;;;;;;5088896;28;20188;-54
2021/03/15 12:05:56;;;;;;;10.50;2.08;;;9.10;99.90;;;;;;5088652;28;20501;-49
2021/03/15 12:08:22;;;;;;;7.97;2.00;;;9.10;99.90;;;;;;5088059;28;20451;-50
2021/03/15 12:10:47;;;;;;;13.52;2.00;;;9.00;99.90;;;;;;5089976;28;20486;-54
2021/03/15 12:13:13;;;;;;;10.65;2.10;;;9.00;99.90;;;;;;5089969;28;20122;-49
2021/03/15 12:15:39;;;;;;;13.35;2.38;;;8.90;99.90;;;;;;5090996;28;20024;-53
2021/03/15 12:18:08;;;;;;;8.07;1.92;;;8.80;99.90;;;;;;5090541;28;20028;-50
2021/03/15 12:20:35;;;;;;;11.18;2.20;;;8.90;99.90;;;;;;5090081;28;20060;-54
2021/03/15 12:23:01;;;;;;;20.10;3.72;;;9.20;99.90;;;;;;5094025;28;20034;-52
2021/03/15 12:25:26;;;;;;;13.38;2.78;;;9.40;99.90;;;;;;5094477;28;20028;-51
2021/03/15 12:27:55;;;;;;;12.55;2.40;;;9.60;99.90;;;;;;5094159;28;20028;-53
2021/03/15 12:30:22;;;;;;;9.52;2.00;;;9.70;99.90;;;;;;5090603;28;20048;-48
2021/03/15 12:32:49;;;;;;;10.68;2.10;;;9.50;99.90;;;;;;5095376;28;20020;-50
2021/03/15 12:35:15;;;;;;;12.73;2.92;;;9.40;99.90;;;;;;5093293;28;20057;-52
2021/03/15 12:37:41;;;;;;;9.95;1.90;;;9.30;99.90;;;;;;5092567;28;20032;-55
2021/03/15 12:40:07;;;;;;;10.48;2.05;;;9.20;99.90;;;;;;5094643;28;20453;-49
2021/03/15 12:42:33;;;;;;;13.32;2.13;;;9.10;99.90;;;;;;5094043;28;20065;-51
2021/03/15 12:44:59;;;;;;;7.97;1.58;;;9.20;99.90;;;;;;5093364;28;20063;-55
2021/03/15 12:47:25;;;;;;;10.32;1.95;;;9.20;99.90;;;;;;5089113;28;20548;-51
2021/03/15 12:49:50;;;;;;;10.50;3.05;;;9.20;99.90;;;;;;5083525;28;20029;-50
2021/03/15 12:52:17;;;;;;;10.35;2.50;;;9.20;99.90;;;;;;5089106;28;20055;-50
2021/03/15 12:54:43;;;;;;;11.98;2.38;;;9.20;99.90;;;;;;5084357;28;20040;-50
2021/03/15 12:57:08;;;;;;;12.82;2.85;;;9.20;99.90;;;;;;5094261;28;20028;-52
2021/03/15 12:59:34;;;;;;;9.15;2.08;;;9.30;99.90;;;;;;5089589;28;20035;-51